Avisos AEMET Campiña SevillanaSin Avisos+ INFO
Sevilla, Andalucía, España
Idioma: es English Français Deutsch Italiano Português Español
 

Informes METAR

 

LEZL - Sevilla, Spain
Distancia de la estación: ENE 8km
Actualización: 14/08/2022 11:30
Despejado
Despejado
 Viento de SSE
Viento: SSE 2 km/h
Temperatura: 29°C
índice de calor: 28°C
Rocío: 14°C
Humedad: 40%
Barómetro: 1012 hPa
Resumen: Despejado
Visibilidad: mayor de 10 km
2022/08/14 09:30 LEZL 140930Z 15001KT CAVOK 29/14 Q1012 NOSIG
LEMO - Morón, Spain
Distancia de la estación: SE 43km
Actualización: 14/08/2022 11:30
Despejado
Despejado
 Viento de variable
Viento: variable 4 km/h
Temperatura: 28°C
índice de calor: 27°C
Rocío: 13°C
Humedad: 40%
Barómetro: 1012 hPa
Resumen: Despejado
Visibilidad: mayor de 10 km
2022/08/14 09:30 LEMO 140930Z VRB02KT CAVOK 28/13 Q1012 NOSIG
LEJR - Jeréz, Spain
Distancia de la estación: S 71km
Actualización: 14/08/2022 11:30
Despejado
Despejado
 Viento de variable
Viento: variable 4 km/h
Temperatura: 28°C
Rocío: 12°C
Humedad: 37%
Barómetro: 1012 hPa
Resumen: Despejado
Visibilidad: mayor de 10 km
2022/08/14 09:30 LEJR 140930Z VRB02KT CAVOK 28/12 Q1012
 
LERT - Rota, Spain
Distancia de la estación: SSO 89km
Actualización: 14/08/2022 11:30
Despejado
Despejado
 Viento de NO
Viento: NO 9 km/h
Temperatura: 25°C
Rocío: 20°C
Humedad: 74%
Barómetro: 1012 hPa
Resumen: Despejado
Visibilidad: mayor de 10 km
2022/08/14 09:30 LERT 140930Z 31005KT 230V350 CAVOK 25/20 Q1012 NOSIG
LEMG - Málaga, Spain
Distancia de la estación: ESE 157km
Actualización: 14/08/2022 11:30
Despejado
Despejado
 Viento de E
Viento: E 6 km/h
Temperatura: 32°C
índice de calor: 33°C
Rocío: 18°C
Humedad: 43%
Barómetro: 1010 hPa
Resumen: Despejado
Visibilidad: mayor de 10 km
2022/08/14 09:30 LEMG 140930Z 09003KT 050V150 CAVOK 32/18 Q1010 NOSIG
LEBA - Córdoba, Spain
Distancia de la estación: ENE 115km
Actualización: 14/08/2022 11:30
Despejado
Despejado
 Viento de variable
Viento: variable 4 km/h
Temperatura: 29°C
índice de calor: 28°C
Rocío: 14°C
Humedad: 40%
Barómetro: 1011 hPa
Resumen: Despejado
Visibilidad: mayor de 10 km
2022/08/14 09:30 LEBA 140930Z VRB02KT CAVOK 29/14 Q1011
 
LEGR - Granada, Spain
Distancia de la estación: E 198km
Actualización: 14/08/2022 11:30
Despejado
Despejado
 Viento de variable
Viento: variable 2 km/h
Temperatura: 29°C
índice de calor: 28°C
Rocío: 14°C
Humedad: 40%
Barómetro: 1014 hPa
Resumen: Despejado
Visibilidad: mayor de 10 km
2022/08/14 09:30 LEGR 140930Z VRB01KT CAVOK 29/14 Q1014
LEAM - Almería, Spain
Distancia de la estación: E 326km
Actualización: 14/08/2022 11:30
Despejado
Despejado
 Viento de SSO
Viento: SSO 11 km/h
Temperatura: 33°C
Rocío: 17°C
Humedad: 38%
Barómetro: 1009 hPa
Resumen: Despejado
Visibilidad: mayor de 10 km
2022/08/14 09:30 LEAM 140930Z 21006KT CAVOK 33/17 Q1009
LEMD - Madrid/Barajas, Spain
Distancia de la estación: NNE 402km
Actualización: 14/08/2022 11:30
Despejado
Despejado
 Viento de SSO
Viento: SSO 13 km/h, Racha: 35 km/h
Temperatura: 26°C
Rocío: 9°C
Humedad: 34%
Barómetro: 1013 hPa
Resumen: Despejado
Visibilidad: mayor de 10 km
2022/08/14 09:30 LEMD 140930Z 21007G19KT 130V280 CAVOK 26/09 Q1013 NOSIG
 
LEVD - Valladolid, Spain
Distancia de la estación: N 492km
Actualización: 14/08/2022 11:30
Despejado
Despejado
 Viento de OSO
Viento: OSO 15 km/h
Temperatura: 20°C
Rocío: 10°C
Humedad: 53%
Barómetro: 1015 hPa
Resumen: Despejado
Visibilidad: mayor de 10 km
2022/08/14 09:30 LEVD 140930Z 25008KT 210V290 CAVOK 20/10 Q1015
LEBL - Barcelona, Spain
Distancia de la estación: NE 816km
Actualización: 14/08/2022 11:30
Despejado
Despejado
 Viento de NO
Viento: NO 7 km/h
Temperatura: 32°C
índice de calor: 33°C
Rocío: 17°C
Humedad: 41%
Barómetro: 1008 hPa
Resumen: Despejado
Visibilidad: mayor de 10 km
2022/08/14 09:30 LEBL 140930Z 31004KT 270V060 CAVOK 32/17 Q1008 NOSIG
LEVC - Valencia, Spain
Distancia de la estación: ENE 535km
Actualización: 14/08/2022 11:30
Despejado
Despejado
 Viento de ESE
Viento: ESE 9 km/h
Temperatura: 34°C
Rocío: 14°C
Humedad: 30%
Barómetro: 1009 hPa
Resumen: Despejado
Visibilidad: mayor de 10 km
2022/08/14 09:30 LEVC 140930Z 11005KT 050V180 CAVOK 34/14 Q1009 NOSIG